Time;durP1;ratioP1;P1;durP2;ratioP2;P2;SDS_P1;SDS_P2;PMS_P1;PMS_P2;Temp;Humidity;BMP_temperature;BMP_pressure;BME280_temperature;BME280_humidity;BME280_pressure;Samples;Min_cycle;Max_cycle;Signal;HPM_P1;HPM_P2
2021/08/05 00:01:26;;;;;;;13.83;7.72;;;;;;;22.41;66.48;100402.50;1746284;80;21017;-67
2021/08/05 00:03:52;;;;;;;13.43;8.05;;;;;;;22.41;66.57;100399.00;1708413;83;22311;-71
2021/08/05 00:06:19;;;;;;;10.13;7.08;;;;;;;22.39;66.56;100393.84;1742968;80;21550;-67
2021/08/05 00:08:45;;;;;;;9.73;6.87;;;;;;;22.36;66.73;100398.26;1745663;80;21067;-66
2021/08/05 00:11:13;;;;;;;10.23;6.90;;;;;;;22.32;66.90;100394.30;1720121;82;21102;-68
2021/08/05 00:13:39;;;;;;;10.00;7.30;;;;;;;22.35;66.86;100393.91;1747119;80;21019;-70
2021/08/05 00:16:07;;;;;;;9.38;6.80;;;;;;;22.39;66.88;100395.19;1749208;80;20984;-70
2021/08/05 00:18:35;;;;;;;13.78;7.60;;;;;;;22.43;67.05;100393.73;1748058;80;21083;-66
2021/08/05 00:21:02;;;;;;;11.03;7.85;;;;;;;22.49;66.95;100384.58;1713976;82;22447;-67
2021/08/05 00:23:29;;;;;;;10.53;8.10;;;;;;;22.52;66.79;100382.32;1715777;82;21056;-66
2021/08/05 00:25:55;;;;;;;12.43;8.38;;;;;;;22.51;66.64;100379.34;1715940;81;21450;-70
2021/08/05 00:28:21;;;;;;;10.82;7.75;;;;;;;22.48;66.55;100379.74;1741344;80;21059;-67
2021/08/05 00:30:48;;;;;;;12.58;8.63;;;;;;;22.46;66.53;100373.77;1749429;80;21142;-68
2021/08/05 00:33:14;;;;;;;11.10;7.80;;;;;;;22.44;66.42;100378.47;1718481;81;21178;-67
2021/08/05 00:35:41;;;;;;;10.28;7.62;;;;;;;22.45;66.22;100376.94;1750903;80;21048;-67
2021/08/05 00:38:07;;;;;;;10.90;7.35;;;;;;;22.49;66.03;100371.98;1745914;80;21111;-68
2021/08/05 00:40:33;;;;;;;11.73;7.33;;;;;;;22.52;65.93;100381.50;1746119;80;21094;-69
2021/08/05 00:43:00;;;;;;;10.35;8.08;;;;;;;22.53;65.88;100371.92;1751086;80;21101;-68
2021/08/05 00:45:26;;;;;;;10.05;7.62;;;;;;;22.53;65.92;100370.58;1744261;80;21915;-67
2021/08/05 00:47:53;;;;;;;11.73;7.47;;;;;;;22.52;65.93;100372.94;1746330;80;21032;-69
2021/08/05 00:50:20;;;;;;;8.78;6.60;;;;;;;22.50;65.84;100366.95;1751197;80;21087;-67
2021/08/05 00:52:46;;;;;;;12.03;6.58;;;;;;;22.48;65.52;100362.80;1754969;80;21051;-67
2021/08/05 00:55:13;;;;;;;12.98;7.22;;;;;;;22.45;65.32;100361.38;1722148;81;21080;-69
2021/08/05 00:57:40;;;;;;;13.48;7.00;;;;;;;22.44;64.99;100357.02;1760352;80;21185;-67
2021/08/05 01:00:08;;;;;;;8.15;5.80;;;;;;;22.47;64.71;100354.47;1757974;80;21071;-70
2021/08/05 01:02:39;;;;;;;8.73;6.15;;;;;;;22.48;64.56;100354.27;1755612;80;21071;-69
2021/08/05 01:05:07;;;;;;;9.65;6.60;;;;;;;22.47;64.50;100351.79;1758922;80;21100;-69
2021/08/05 01:07:57;;;;;;;8.85;5.87;;;;;;;22.42;64.32;100354.55;1723510;81;21104;-71
2021/08/05 01:10:30;;;;;;;9.03;5.72;;;;;;;22.37;64.22;100352.16;1757684;80;21161;-67
2021/08/05 01:13:30;;;;;;;9.90;6.15;;;;;;;22.28;64.15;100342.63;1749572;81;21087;-67
2021/08/05 01:15:56;;;;;;;9.90;5.72;;;;;;;22.21;64.12;100346.10;1751860;80;21059;-67
2021/08/05 01:18:27;;;;;;;11.25;7.08;;;;;;;22.12;64.27;100341.11;1697511;81;21070;-67
2021/08/05 01:20:54;;;;;;;9.70;6.58;;;;;;;22.08;64.37;100342.03;1733233;80;21520;-68
2021/08/05 01:23:42;;;;;;;9.05;5.35;;;;;;;22.08;64.33;100341.50;1758277;80;21145;-67
2021/08/05 01:26:37;;;;;;;8.95;5.97;;;;;;;22.07;64.38;100341.21;1718180;83;21047;-71
2021/08/05 01:29:04;;;;;;;8.30;6.08;;;;;;;22.05;64.49;100341.90;1712151;82;21026;-68
2021/08/05 01:31:31;;;;;;;8.83;6.45;;;;;;;22.00;64.61;100338.99;1708801;82;22356;-68
2021/08/05 01:33:57;;;;;;;7.58;6.20;;;;;;;21.98;64.65;100341.57;1718435;82;21076;-67
2021/08/05 01:36:26;;;;;;;8.43;6.12;;;;;;;21.95;64.65;100336.09;1716814;82;21062;-68
2021/08/05 01:38:52;;;;;;;7.17;5.47;;;;;;;21.92;64.68;100344.52;1712805;82;21050;-71
2021/08/05 01:41:19;;;;;;;8.93;6.10;;;;;;;21.90;64.77;100338.53;1700193;82;21031;-68
2021/08/05 01:43:47;;;;;;;10.50;6.12;;;;;;;21.89;64.79;100345.75;1718555;82;21103;-69
2021/08/05 01:46:18;;;;;;;8.13;6.60;;;;;;;21.88;64.87;100331.22;1723597;82;21054;-68
2021/08/05 01:48:46;;;;;;;10.20;6.20;;;;;;;21.85;64.97;100319.03;1695380;83;21155;-69
2021/08/05 01:51:12;;;;;;;8.55;6.05;;;;;;;21.83;65.16;100331.80;1714234;82;21030;-69
2021/08/05 01:53:39;;;;;;;7.85;5.45;;;;;;;21.79;65.30;100329.22;1708039;82;21086;-68
2021/08/05 01:56:06;;;;;;;9.13;6.30;;;;;;;21.76;65.44;100324.78;1680924;83;21100;-69
2021/08/05 01:58:32;;;;;;;11.90;6.42;;;;;;;21.73;65.53;100324.64;1654134;84;21147;-67
2021/08/05 02:00:59;;;;;;;7.70;5.35;;;;;;;21.71;65.59;100320.82;1679923;83;21237;-69
2021/08/05 02:03:25;;;;;;;8.18;5.87;;;;;;;21.74;65.52;100322.30;1706385;83;21078;-70
2021/08/05 02:06:20;;;;;;;9.63;6.20;;;;;;;21.77;65.50;100327.75;1709146;82;21037;-67
2021/08/05 02:08:58;;;;;;;8.53;5.97;;;;;;;21.75;65.46;100329.28;1682701;82;21504;-67
2021/08/05 02:11:28;;;;;;;9.13;6.05;;;;;;;21.71;65.49;100322.69;1678365;83;21043;-68
2021/08/05 02:13:57;;;;;;;9.60;6.50;;;;;;;21.66;65.56;100319.25;1696548;83;21038;-67
2021/08/05 02:16:25;;;;;;;7.70;5.70;;;;;;;21.60;65.52;100318.72;1701381;83;21516;-67
2021/08/05 02:18:52;;;;;;;8.10;5.28;;;;;;;21.55;65.70;100318.45;1696012;83;21074;-68
2021/08/05 02:21:22;;;;;;;9.33;5.80;;;;;;;21.55;65.74;100317.64;1712440;83;21070;-67
2021/08/05 02:23:48;;;;;;;8.33;6.17;;;;;;;21.56;65.72;100321.45;1704550;83;22006;-68
2021/08/05 02:26:15;;;;;;;9.45;5.50;;;;;;;21.59;65.67;100314.90;1711373;83;21161;-67
2021/08/05 02:28:41;;;;;;;9.80;5.90;;;;;;;21.60;65.67;100328.09;1698372;83;21082;-67
2021/08/05 02:31:08;;;;;;;8.23;6.00;;;;;;;21.58;65.71;100322.08;1698127;83;21109;-68
2021/08/05 02:33:36;;;;;;;9.83;5.90;;;;;;;21.58;65.70;100318.59;1665526;83;21050;-68
2021/08/05 02:36:04;;;;;;;8.15;5.87;;;;;;;21.56;65.70;100316.11;1646705;84;21072;-66
2021/08/05 02:38:31;;;;;;;7.28;5.55;;;;;;;21.54;65.79;100315.48;1668532;84;21135;-67
2021/08/05 02:40:57;;;;;;;8.95;5.75;;;;;;;21.55;65.76;100313.62;1699010;83;21066;-68
2021/08/05 02:43:27;;;;;;;7.90;5.35;;;;;;;21.59;65.65;100313.03;1704012;83;21802;-68
2021/08/05 02:45:53;;;;;;;8.18;5.50;;;;;;;21.63;65.55;100310.79;1665699;83;21011;-68
2021/08/05 02:48:20;;;;;;;9.15;5.90;;;;;;;21.63;65.58;100320.98;1701091;83;21007;-68
2021/08/05 02:50:46;;;;;;;8.10;5.87;;;;;;;21.62;65.71;100317.16;1683902;83;21151;-68
2021/08/05 02:53:13;;;;;;;7.45;5.42;;;;;;;21.60;65.75;100314.70;1694014;83;21050;-67
2021/08/05 02:55:39;;;;;;;7.58;5.47;;;;;;;21.59;65.80;100314.90;1693187;83;21093;-68
2021/08/05 02:58:06;;;;;;;8.25;5.35;;;;;;;21.58;65.89;100315.39;1705017;83;21094;-70
2021/08/05 03:00:33;;;;;;;8.63;6.12;;;;;;;21.60;65.96;100309.34;1689111;83;21110;-68
2021/08/05 03:03:01;;;;;;;8.95;5.42;;;;;;;21.67;65.86;100313.38;1704496;83;21218;-67
2021/08/05 03:05:28;;;;;;;8.13;5.80;;;;;;;21.70;65.87;100309.81;1691213;83;21031;-68
2021/08/05 03:07:54;;;;;;;7.90;6.00;;;;;;;21.72;65.93;100313.64;1692690;83;21082;-68
2021/08/05 03:10:21;;;;;;;8.78;6.62;;;;;;;21.72;66.08;100312.30;1695035;83;21062;-67
2021/08/05 03:12:47;;;;;;;7.95;5.78;;;;;;;21.74;66.23;100310.73;1698996;83;21047;-67
2021/08/05 03:15:15;;;;;;;10.08;6.60;;;;;;;21.73;66.39;100310.44;1665480;83;21088;-67
2021/08/05 03:17:41;;;;;;;8.30;6.15;;;;;;;21.74;66.50;100306.22;1698025;83;21066;-68
2021/08/05 03:20:15;;;;;;;7.85;5.75;;;;;;;21.79;66.63;100303.78;1685490;83;21067;-68
2021/08/05 03:22:40;;;;;;;9.23;6.20;;;;;;;21.87;66.56;100298.75;1697359;83;21087;-68
2021/08/05 03:25:08;;;;;;;8.78;5.90;;;;;;;21.94;66.31;100301.45;1699463;83;21666;-68
2021/08/05 03:27:36;;;;;;;8.38;6.25;;;;;;;21.98;66.39;100304.89;1671867;83;21071;-67
2021/08/05 03:30:05;;;;;;;7.42;5.78;;;;;;;22.00;66.27;100302.83;1671501;83;21035;-69
2021/08/05 03:32:31;;;;;;;8.63;6.25;;;;;;;22.03;66.14;100301.09;1698008;83;21473;-67
2021/08/05 03:34:58;;;;;;;8.78;5.83;;;;;;;22.08;66.10;100300.50;1692592;83;21816;-69
2021/08/05 03:37:25;;;;;;;9.50;6.40;;;;;;;22.08;65.95;100295.95;1657906;84;21541;-69
2021/08/05 03:39:51;;;;;;;7.28;5.58;;;;;;;22.12;65.86;100302.26;1660853;83;21071;-68
2021/08/05 03:42:17;;;;;;;9.43;6.15;;;;;;;22.19;65.64;100298.59;1697294;83;21279;-69
2021/08/05 03:44:44;;;;;;;7.72;5.60;;;;;;;22.25;65.51;100297.77;1667009;83;21749;-68
2021/08/05 03:47:11;;;;;;;8.80;6.35;;;;;;;22.31;65.27;100296.67;1686248;83;21114;-69
2021/08/05 03:49:39;;;;;;;8.75;5.85;;;;;;;22.33;65.04;100303.50;1678134;83;21541;-68
2021/08/05 03:52:05;;;;;;;8.00;6.00;;;;;;;22.35;64.80;100298.75;1668317;84;21167;-67
2021/08/05 03:54:31;;;;;;;7.72;5.95;;;;;;;22.35;64.68;100293.39;1642394;85;21534;-67
2021/08/05 03:56:58;;;;;;;7.72;5.58;;;;;;;22.38;64.48;100290.31;1671525;84;21096;-69
2021/08/05 03:59:25;;;;;;;9.03;6.08;;;;;;;22.37;64.41;100299.38;1644036;84;21098;-68
2021/08/05 04:01:51;;;;;;;8.13;5.75;;;;;;;22.40;64.08;100295.47;1665628;84;21065;-69
2021/08/05 04:04:18;;;;;;;8.00;5.80;;;;;;;22.47;63.94;100296.83;1678180;84;21715;-67
2021/08/05 04:06:44;;;;;;;9.20;6.08;;;;;;;22.52;64.00;100293.02;1665797;84;21060;-67
2021/08/05 04:09:12;;;;;;;8.55;5.42;;;;;;;22.58;63.98;100294.90;1665087;85;21499;-69
2021/08/05 04:11:40;;;;;;;7.75;5.65;;;;;;;22.62;63.78;100294.27;1666618;84;21078;-69
2021/08/05 04:14:06;;;;;;;9.18;6.55;;;;;;;22.66;63.73;100292.52;1641976;85;21379;-66
2021/08/05 04:16:35;;;;;;;7.78;5.25;;;;;;;22.68;63.24;100292.64;1667140;84;22231;-69
2021/08/05 04:19:02;;;;;;;8.28;6.12;;;;;;;22.67;62.84;100295.00;1670109;84;21051;-68
2021/08/05 04:21:28;;;;;;;8.50;6.15;;;;;;;22.64;62.80;100290.03;1664353;84;22330;-66
2021/08/05 04:23:55;;;;;;;9.45;5.85;;;;;;;22.68;62.70;100282.41;1640127;85;21130;-69
2021/08/05 04:26:21;;;;;;;8.58;5.90;;;;;;;22.76;62.55;100283.55;1666928;84;21588;-69
2021/08/05 04:28:49;;;;;;;9.28;6.15;;;;;;;22.82;62.80;100282.73;1667428;84;21608;-68
2021/08/05 04:31:15;;;;;;;8.95;6.20;;;;;;;22.89;62.61;100286.77;1670713;84;21055;-71
2021/08/05 04:33:43;;;;;;;8.00;6.40;;;;;;;22.90;62.53;100293.27;1673369;84;21129;-70
2021/08/05 04:36:10;;;;;;;8.30;5.80;;;;;;;22.92;62.73;100287.70;1642374;85;21090;-66
2021/08/05 04:38:37;;;;;;;9.28;6.12;;;;;;;22.93;62.70;100286.64;1673790;84;21086;-68
2021/08/05 04:41:04;;;;;;;8.85;6.70;;;;;;;22.93;62.47;100287.49;1663699;84;23326;-67
2021/08/05 04:43:32;;;;;;;9.38;6.33;;;;;;;22.92;61.78;100287.70;1673833;83;21066;-67
2021/08/05 04:45:58;;;;;;;9.78;6.20;;;;;;;22.91;62.05;100288.72;1676247;83;21066;-68
2021/08/05 04:48:28;;;;;;;7.55;6.03;;;;;;;22.94;62.07;100286.97;1645488;85;21072;-68
2021/08/05 04:50:54;;;;;;;9.85;6.62;;;;;;;23.02;61.77;100283.27;1673846;83;21078;-68
2021/08/05 04:53:21;;;;;;;9.48;6.83;;;;;;;23.11;61.93;100293.59;1650279;85;21130;-67
2021/08/05 04:55:48;;;;;;;11.60;7.47;;;;;;;23.17;61.68;100292.77;1649106;85;21083;-69
2021/08/05 04:58:15;;;;;;;7.72;6.40;;;;;;;23.23;61.54;100288.41;1676731;85;21104;-70
2021/08/05 05:00:42;;;;;;;9.25;7.10;;;;;;;23.28;61.34;100281.08;1648683;85;21053;-67
2021/08/05 05:03:10;;;;;;;8.90;6.22;;;;;;;23.27;60.95;100272.74;1678662;83;21083;-71
2021/08/05 05:05:37;;;;;;;11.30;6.17;;;;;;;23.24;60.57;100278.52;1711641;82;21202;-69
2021/08/05 05:08:22;;;;;;;8.23;5.67;;;;;;;23.22;59.76;100277.88;1689397;82;21623;-68
2021/08/05 05:10:52;;;;;;;8.68;6.03;;;;;;;23.19;59.67;100283.17;1716781;82;21704;-69
2021/08/05 05:13:20;;;;;;;11.12;6.72;;;;;;;23.18;59.57;100279.67;1728465;82;21671;-69
2021/08/05 05:15:47;;;;;;;9.43;6.92;;;;;;;23.14;59.40;100283.78;1712048;82;21105;-69
2021/08/05 05:18:17;;;;;;;8.08;6.55;;;;;;;23.13;59.36;100282.16;1713400;81;21371;-69
2021/08/05 05:20:45;;;;;;;10.08;6.40;;;;;;;23.14;59.48;100275.73;1707822;82;21093;-67
2021/08/05 05:23:12;;;;;;;11.38;7.20;;;;;;;23.20;59.51;100280.80;1723044;82;21647;-70
2021/08/05 05:25:39;;;;;;;8.93;6.22;;;;;;;23.27;59.39;100282.14;1716022;81;21104;-68
2021/08/05 05:28:07;;;;;;;8.95;6.70;;;;;;;23.37;59.47;100279.84;1683949;83;21112;-69
2021/08/05 05:30:35;;;;;;;8.53;6.95;;;;;;;23.44;59.21;100286.02;1680588;83;21112;-70
2021/08/05 05:33:02;;;;;;;10.10;6.62;;;;;;;23.50;59.16;100283.00;1693478;82;21041;-67
2021/08/05 05:35:29;;;;;;;10.88;7.15;;;;;;;23.54;59.17;100285.06;1714083;82;21154;-69
2021/08/05 05:37:56;;;;;;;11.05;7.72;;;;;;;23.63;59.29;100286.17;1712057;82;21567;-69
2021/08/05 05:40:22;;;;;;;9.35;7.42;;;;;;;23.70;59.48;100289.66;1712777;83;21153;-65
2021/08/05 05:42:49;;;;;;;10.85;7.92;;;;;;;23.77;59.94;100284.27;1680479;82;21351;-66
2021/08/05 05:45:17;;;;;;;9.35;7.17;;;;;;;23.84;59.24;100279.71;1720975;82;21054;-65
2021/08/05 05:47:44;;;;;;;10.10;7.10;;;;;;;23.91;59.01;100280.00;1713801;82;21105;-66
2021/08/05 05:50:11;;;;;;;11.43;7.70;;;;;;;23.96;58.66;100277.21;1723016;80;21072;-67
2021/08/05 05:52:38;;;;;;;8.45;6.40;;;;;;;24.01;58.97;100289.48;1712839;81;21071;-69
2021/08/05 05:55:07;;;;;;;9.15;6.85;;;;;;;24.10;59.04;100284.16;1739033;80;21080;-67
2021/08/05 05:57:33;;;;;;;10.18;7.45;;;;;;;24.22;58.74;100282.43;1713523;80;21096;-68
2021/08/05 05:59:59;;;;;;;10.95;7.40;;;;;;;24.33;58.73;100285.50;1709948;80;21353;-68
2021/08/05 06:02:27;;;;;;;10.78;7.33;;;;;;;24.36;58.37;100288.58;1679928;82;21107;-67
2021/08/05 06:04:54;;;;;;;10.18;6.85;;;;;;;24.36;58.08;100291.27;1733747;80;20988;-67
2021/08/05 06:07:21;;;;;;;15.08;8.08;;;;;;;24.34;57.72;100287.95;1736023;80;21147;-67
2021/08/05 06:09:48;;;;;;;11.75;7.37;;;;;;;24.32;57.89;100292.72;1737192;80;20901;-69
2021/08/05 06:12:14;;;;;;;8.53;7.03;;;;;;;24.29;57.87;100288.62;1737740;80;21149;-67
2021/08/05 06:14:41;;;;;;;11.93;6.78;;;;;;;24.28;57.99;100286.95;1737386;80;20981;-66
2021/08/05 06:17:08;;;;;;;8.78;7.08;;;;;;;24.30;58.24;100281.36;1737764;80;21024;-72
2021/08/05 06:19:34;;;;;;;10.30;7.95;;;;;;;24.31;58.39;100280.34;1740513;80;21448;-70
2021/08/05 06:22:02;;;;;;;13.20;7.67;;;;;;;24.37;58.62;100278.11;1694380;82;21038;-65
2021/08/05 06:24:29;;;;;;;11.08;7.87;;;;;;;24.46;58.29;100275.48;1738097;80;21026;-67
2021/08/05 06:26:55;;;;;;;11.35;7.10;;;;;;;24.52;58.30;100275.65;1737555;80;21040;-68
2021/08/05 06:29:24;;;;;;;8.78;7.35;;;;;;;24.59;58.36;100279.95;1739706;80;21975;-65
2021/08/05 06:31:50;;;;;;;9.95;7.92;;;;;;;24.61;57.62;100272.52;1741303;80;21173;-66
2021/08/05 06:34:16;;;;;;;10.10;7.58;;;;;;;24.61;57.36;100270.33;1733476;80;21130;-70
2021/08/05 06:36:43;;;;;;;10.25;7.85;;;;;;;24.56;57.62;100268.81;1731047;80;21594;-69
2021/08/05 06:39:09;;;;;;;11.53;7.70;;;;;;;24.54;57.55;100267.65;1736270;80;21071;-69
2021/08/05 06:41:37;;;;;;;11.48;9.40;;;;;;;24.51;57.44;100266.77;1738088;80;22288;-68
2021/08/05 06:44:04;;;;;;;10.25;8.13;;;;;;;24.47;57.59;100265.00;1734412;80;21041;-69
2021/08/05 06:46:32;;;;;;;10.98;7.45;;;;;;;24.52;57.63;100267.05;1742043;80;21043;-70
2021/08/05 06:49:00;;;;;;;10.53;8.50;;;;;;;24.57;57.59;100272.62;1733954;80;21054;-70
2021/08/05 06:51:27;;;;;;;12.10;8.40;;;;;;;24.60;57.75;100266.82;1741488;80;21420;-68
2021/08/05 06:53:53;;;;;;;11.55;8.03;;;;;;;24.71;57.75;100263.12;1736586;80;21107;-68
2021/08/05 06:56:19;;;;;;;11.55;8.20;;;;;;;24.86;57.64;100260.92;1741612;80;22773;-67
2021/08/05 06:58:46;;;;;;;11.97;9.05;;;;;;;24.97;57.24;100258.86;1741079;80;21155;-69
2021/08/05 07:01:12;;;;;;;11.40;8.35;;;;;;;25.07;57.03;100255.67;1742391;80;21444;-68
2021/08/05 07:03:38;;;;;;;10.75;8.60;;;;;;;25.13;56.43;100249.91;1741920;80;21192;-69
2021/08/05 07:06:06;;;;;;;13.03;8.35;;;;;;;25.15;55.71;100243.27;1741249;80;21015;-69
2021/08/05 07:08:34;;;;;;;11.08;8.53;;;;;;;25.17;56.02;100246.56;1742143;80;21182;-69
2021/08/05 07:11:02;;;;;;;12.15;9.05;;;;;;;25.23;56.65;100247.53;1741324;80;21162;-68
2021/08/05 07:13:28;;;;;;;10.63;9.03;;;;;;;25.29;56.58;100247.21;1743158;80;21557;-67
2021/08/05 07:15:54;;;;;;;10.90;8.60;;;;;;;25.35;56.68;100246.30;1705036;82;21091;-68
2021/08/05 07:18:21;;;;;;;11.12;7.95;;;;;;;25.43;56.73;100241.14;1742765;80;21590;-67
2021/08/05 07:20:47;;;;;;;11.57;9.00;;;;;;;25.49;56.64;100230.30;1707043;82;21576;-67
2021/08/05 07:23:13;;;;;;;12.15;9.50;;;;;;;25.54;56.73;100246.61;1742503;80;21099;-67
2021/08/05 07:25:40;;;;;;;9.90;8.70;;;;;;;25.56;56.48;100238.30;1734020;80;21087;-69
2021/08/05 07:28:06;;;;;;;13.68;8.60;;;;;;;25.57;55.83;100229.16;1702842;82;21082;-68
2021/08/05 07:30:33;;;;;;;11.57;9.13;;;;;;;25.51;55.56;100232.23;1740254;80;21059;-70
2021/08/05 07:32:59;;;;;;;11.45;8.43;;;;;;;25.53;56.13;100227.44;1739489;81;21198;-70
2021/08/05 07:35:25;;;;;;;10.78;8.25;;;;;;;25.58;54.89;100225.42;1741811;80;21083;-69
2021/08/05 07:37:52;;;;;;;12.07;8.13;;;;;;;25.58;54.36;100218.16;1705768;82;21066;-70
2021/08/05 07:40:19;;;;;;;11.38;7.75;;;;;;;25.62;54.45;100216.36;1741460;80;21126;-68
2021/08/05 07:42:47;;;;;;;9.85;8.23;;;;;;;25.63;53.50;100220.71;1703038;82;22195;-69
2021/08/05 07:45:14;;;;;;;10.72;7.75;;;;;;;25.66;52.79;100220.27;1687268;83;21616;-70
2021/08/05 07:47:41;;;;;;;12.35;8.13;;;;;;;25.70;51.05;100220.09;1702176;82;21102;-69
2021/08/05 07:50:10;;;;;;;10.60;7.97;;;;;;;25.73;51.64;100218.30;1707791;82;21384;-69
2021/08/05 07:52:37;;;;;;;12.18;8.93;;;;;;;25.80;51.55;100221.72;1710710;82;21152;-70
2021/08/05 07:55:06;;;;;;;11.08;8.05;;;;;;;25.85;52.21;100214.31;1712929;82;21582;-68
2021/08/05 07:57:33;;;;;;;12.15;8.55;;;;;;;25.87;53.05;100213.05;1710296;82;21128;-68
2021/08/05 08:00:00;;;;;;;12.78;9.00;;;;;;;25.88;53.30;100219.25;1706940;82;21105;-68
2021/08/05 08:02:27;;;;;;;12.63;9.33;;;;;;;25.88;53.57;100213.33;1708596;82;21105;-68
2021/08/05 08:04:54;;;;;;;14.00;8.73;;;;;;;25.89;53.06;100208.24;1707311;82;21053;-66
2021/08/05 08:07:22;;;;;;;9.90;7.70;;;;;;;25.89;53.14;100214.98;1709569;82;21160;-67
2021/08/05 08:09:49;;;;;;;12.10;8.25;;;;;;;25.94;53.45;100212.42;1709396;82;21224;-69
2021/08/05 08:12:15;;;;;;;8.93;7.60;;;;;;;26.00;53.89;100208.01;1716213;82;21086;-68
2021/08/05 08:14:44;;;;;;;11.03;8.80;;;;;;;26.07;53.90;100203.88;1711339;82;22317;-69
2021/08/05 08:17:12;;;;;;;9.78;8.05;;;;;;;26.14;53.87;100200.54;1712555;82;21073;-67
2021/08/05 08:19:38;;;;;;;9.88;8.00;;;;;;;26.22;53.21;100202.10;1708249;82;22236;-67
2021/08/05 08:22:06;;;;;;;9.80;8.00;;;;;;;26.29;53.62;100190.67;1709320;82;21147;-69
2021/08/05 08:24:33;;;;;;;11.93;8.45;;;;;;;26.42;53.35;100197.75;1712953;82;21638;-67
2021/08/05 08:26:59;;;;;;;11.30;7.80;;;;;;;26.54;52.42;100189.13;1711058;82;21077;-67
2021/08/05 08:29:25;;;;;;;10.72;8.70;;;;;;;26.66;52.76;100194.56;1716784;82;22183;-68
2021/08/05 08:31:52;;;;;;;15.50;9.40;;;;;;;26.76;52.90;100192.10;1708058;82;21638;-65
2021/08/05 08:34:18;;;;;;;11.68;7.90;;;;;;;26.87;53.14;100187.23;1744209;80;21114;-68
2021/08/05 08:36:45;;;;;;;14.25;7.85;;;;;;;26.98;52.58;100188.30;1742279;80;21590;-69
2021/08/05 08:39:12;;;;;;;9.68;7.87;;;;;;;27.09;52.50;100185.29;1708769;82;21048;-68
2021/08/05 08:41:41;;;;;;;15.65;8.40;;;;;;;27.19;52.32;100181.45;1713988;82;21106;-68
2021/08/05 08:44:08;;;;;;;15.48;8.53;;;;;;;27.28;52.20;100186.48;1709288;82;21506;-67
2021/08/05 08:46:36;;;;;;;12.37;8.23;;;;;;;27.33;52.38;100179.33;1743954;80;21150;-66
2021/08/05 08:49:04;;;;;;;14.23;8.75;;;;;;;27.43;51.95;100176.02;1745910;80;21084;-65
2021/08/05 08:51:31;;;;;;;11.38;8.10;;;;;;;27.54;51.69;100173.82;1749920;80;21111;-68
2021/08/05 08:54:07;;;;;;;11.22;7.87;;;;;;;27.63;50.89;100175.61;1754906;80;21705;-66
2021/08/05 08:56:34;;;;;;;11.60;8.25;;;;;;;27.69;50.61;100177.35;1764020;80;23387;-66
2021/08/05 08:59:01;;;;;;;10.68;8.18;;;;;;;27.74;50.58;100172.05;1755100;80;21120;-64
2021/08/05 09:01:29;;;;;;;11.28;7.85;;;;;;;27.84;50.63;100169.22;1760749;80;21029;-68
2021/08/05 09:03:55;;;;;;;11.22;7.97;;;;;;;27.96;50.33;100167.33;1725559;80;20981;-68
2021/08/05 09:06:21;;;;;;;12.15;8.05;;;;;;;28.06;50.32;100168.02;1762895;80;20977;-70
2021/08/05 09:08:50;;;;;;;11.10;8.45;;;;;;;28.14;49.50;100164.41;1760812;80;21016;-68
2021/08/05 09:11:17;;;;;;;12.33;8.20;;;;;;;28.19;49.13;100164.19;1717184;82;21136;-68
2021/08/05 09:13:43;;;;;;;11.18;8.13;;;;;;;28.21;49.57;100164.76;1714812;82;21612;-70
2021/08/05 09:16:24;;;;;;;11.33;7.60;;;;;;;28.22;49.60;100161.00;1714957;82;21217;-70
2021/08/05 09:18:53;;;;;;;15.08;8.15;;;;;;;28.26;49.52;100160.78;1719115;82;21075;-67
2021/08/05 09:21:25;;;;;;;11.85;7.67;;;;;;;28.28;49.80;100162.73;1713481;82;21451;-69
2021/08/05 09:23:56;;;;;;;11.28;7.20;;;;;;;28.30;50.25;100157.34;1701541;82;22285;-68
2021/08/05 09:26:46;;;;;;;11.15;7.00;;;;;;;28.37;49.98;100158.53;1671533;82;21596;-68
2021/08/05 09:29:20;;;;;;;9.60;6.45;;;;;;;28.48;50.26;100162.20;1697790;82;21580;-67
2021/08/05 09:31:54;;;;;;;9.65;6.62;;;;;;;28.64;49.65;100156.00;1696966;82;21106;-68
2021/08/05 09:34:36;;;;;;;9.65;6.08;;;;;;;28.76;48.38;100159.14;1715487;82;21418;-70
2021/08/05 09:37:10;;;;;;;9.25;6.45;;;;;;;28.86;48.35;100149.81;1723138;82;21155;-70
2021/08/05 09:39:45;;;;;;;11.73;6.97;;;;;;;29.00;48.30;100151.61;1716529;82;21052;-70
2021/08/05 09:42:12;;;;;;;7.77;6.10;;;;;;;29.09;48.33;100148.77;1689674;83;21079;-67
2021/08/05 09:44:46;;;;;;;9.65;6.97;;;;;;;29.18;48.84;100153.23;1709482;82;21194;-67
2021/08/05 09:47:20;;;;;;;11.03;7.70;;;;;;;29.25;48.72;100147.08;1718038;82;22298;-67
2021/08/05 09:49:55;;;;;;;11.45;6.87;;;;;;;29.31;47.93;100147.98;1712137;82;21678;-66
2021/08/05 09:52:34;;;;;;;25.35;6.62;;;;;;;29.31;48.20;100142.56;1683862;82;21012;-68
2021/08/05 09:55:08;;;;;;;10.63;6.30;;;;;;;29.30;48.23;100149.05;1701050;82;21396;-68
2021/08/05 09:57:37;;;;;;;9.65;6.53;;;;;;;29.30;47.70;100140.37;1736042;81;21083;-67
2021/08/05 10:00:10;;;;;;;8.38;6.58;;;;;;;29.30;48.26;100133.59;1744566;80;21064;-68
2021/08/05 10:02:50;;;;;;;7.67;5.15;;;;;;;29.31;48.57;100131.72;1749769;80;21125;-70
2021/08/05 10:07:00;;;;;;;10.20;5.70;;;;;;;29.37;48.84;100130.17;1795050;78;22610;-70
2021/08/05 10:09:29;;;;;;;8.03;5.75;;;;;;;29.38;47.59;100133.70;1773277;80;20923;-69
2021/08/05 10:12:16;;;;;;;8.60;5.70;;;;;;;29.48;47.80;100134.34;1766092;79;22288;-67
2021/08/05 10:14:43;;;;;;;11.20;5.60;;;;;;;29.56;46.11;100135.25;1761995;79;20994;-67
2021/08/05 10:17:14;;;;;;;7.45;5.53;;;;;;;29.61;46.86;100128.52;1752571;80;21028;-68
2021/08/05 10:19:45;;;;;;;7.87;5.58;;;;;;;29.66;47.19;100127.22;1750342;80;20982;-67
2021/08/05 10:22:16;;;;;;;8.80;6.35;;;;;;;29.71;47.25;100127.27;1743856;80;21521;-66
2021/08/05 10:24:47;;;;;;;8.60;5.78;;;;;;;29.80;47.29;100123.03;1749484;80;21144;-69
2021/08/05 10:27:16;;;;;;;8.50;6.00;;;;;;;29.89;47.12;100115.79;1752433;80;21027;-67
2021/08/05 10:29:42;;;;;;;7.53;6.00;;;;;;;29.97;47.04;100109.34;1754193;80;20934;-66
2021/08/05 10:32:12;;;;;;;9.30;5.85;;;;;;;30.03;46.27;100109.39;1690676;83;21066;-67
2021/08/05 10:34:39;;;;;;;10.30;6.05;;;;;;;30.08;46.43;100108.10;1718748;82;21049;-66
2021/08/05 10:37:10;;;;;;;7.25;5.83;;;;;;;30.13;46.25;100098.09;1717332;82;21314;-67
2021/08/05 10:39:36;;;;;;;8.73;4.87;;;;;;;30.15;46.25;100096.48;1716210;82;21100;-67
2021/08/05 10:42:09;;;;;;;9.03;4.67;;;;;;;30.15;44.60;100094.58;1705967;82;21042;-69
2021/08/05 10:44:37;;;;;;;6.12;4.92;;;;;;;30.15;44.67;100098.65;1718611;82;21074;-68
2021/08/05 10:47:05;;;;;;;7.53;5.20;;;;;;;30.14;43.13;100102.97;1713597;82;21046;-69
2021/08/05 10:49:32;;;;;;;8.93;5.83;;;;;;;30.10;42.90;100093.73;1715424;82;21152;-68
2021/08/05 10:51:58;;;;;;;6.10;4.70;;;;;;;30.09;42.63;100099.67;1692698;83;20901;-66
2021/08/05 10:54:51;;;;;;;7.42;4.83;;;;;;;30.05;42.77;100091.79;1692631;83;21138;-68
2021/08/05 10:57:25;;;;;;;6.60;5.20;;;;;;;30.08;44.18;100085.05;1689098;83;21084;-67
2021/08/05 11:00:04;;;;;;;8.13;5.00;;;;;;;30.18;44.29;100081.85;1690971;83;21182;-69
2021/08/05 11:02:54;;;;;;;6.35;4.28;;;;;;;30.33;43.27;100083.05;1685551;83;21128;-68
2021/08/05 11:05:38;;;;;;;6.42;4.65;;;;;;;30.42;43.15;100084.76;1714962;82;21056;-67
2021/08/05 11:08:13;;;;;;;6.33;4.42;;;;;;;30.47;43.13;100081.52;1744117;80;21117;-68
2021/08/05 11:10:39;;;;;;;6.50;4.47;;;;;;;30.50;42.95;100072.86;1680630;83;21062;-67
2021/08/05 11:13:15;;;;;;;7.33;4.85;;;;;;;30.56;42.57;100070.98;1681389;83;21092;-67
2021/08/05 11:15:44;;;;;;;6.40;4.90;;;;;;;30.59;42.52;100070.45;1683980;83;21934;-68
2021/08/05 11:18:17;;;;;;;6.90;4.45;;;;;;;30.66;43.53;100075.09;1678067;83;21051;-67
2021/08/05 11:20:54;;;;;;;6.92;4.50;;;;;;;30.75;42.71;100065.93;1686484;83;21054;-68
2021/08/05 11:23:34;;;;;;;6.97;4.60;;;;;;;30.82;42.99;100063.78;1708048;83;20971;-68
2021/08/05 11:26:07;;;;;;;6.58;4.30;;;;;;;30.91;41.87;100068.96;1714882;82;20944;-68
2021/08/05 11:28:44;;;;;;;6.92;4.20;;;;;;;30.93;42.37;100060.03;1744671;80;21091;-68
2021/08/05 11:31:24;;;;;;;7.90;4.80;;;;;;;30.94;42.12;100054.08;1744839;80;21023;-69